createdAt,value
2023-01-12T00:03:01.582Z,36.90
2023-01-12T00:05:51.537Z,36.20
2023-01-12T00:08:41.430Z,31.20
2023-01-12T00:11:35.620Z,33.90
2023-01-12T00:14:14.990Z,34.80
2023-01-12T00:17:06.270Z,33.70
2023-01-12T00:20:06.075Z,28.90
2023-01-12T00:22:48.927Z,30.00
2023-01-12T00:25:38.107Z,32.80
2023-01-12T00:28:32.958Z,38.70
2023-01-12T00:31:22.162Z,34.50
2023-01-12T00:34:12.011Z,31.00
2023-01-12T00:37:04.907Z,34.10
2023-01-12T00:40:02.610Z,28.00
2023-01-12T00:43:10.850Z,29.80
2023-01-12T00:46:02.714Z,33.90
2023-01-12T00:48:52.288Z,34.70
2023-01-12T00:51:41.961Z,29.10
2023-01-12T00:54:35.548Z,32.60
2023-01-12T00:57:29.028Z,33.70
2023-01-12T01:00:19.580Z,33.80
2023-01-12T01:03:10.479Z,30.10
2023-01-12T01:06:15.344Z,33.70
2023-01-12T01:09:05.548Z,30.60
2023-01-12T01:11:56.513Z,33.00
2023-01-12T01:14:48.668Z,33.70
2023-01-12T01:17:37.895Z,28.70
2023-01-12T01:20:39.219Z,33.00
2023-01-12T01:23:33.879Z,31.40
2023-01-12T01:26:26.313Z,32.60
2023-01-12T01:29:16.035Z,30.00
2023-01-12T01:32:06.174Z,29.30
2023-01-12T01:35:22.526Z,29.20
2023-01-12T01:38:12.222Z,28.70
2023-01-12T01:41:19.113Z,31.90
2023-01-12T01:44:40.882Z,31.80
2023-01-12T01:50:36.111Z,29.10
2023-01-12T01:53:30.587Z,42.20
2023-01-12T01:56:25.620Z,24.00
2023-01-12T01:59:11.609Z,26.60
2023-01-12T02:02:03.023Z,28.50
2023-01-12T02:04:46.355Z,29.40
2023-01-12T02:07:38.710Z,30.60
2023-01-12T02:10:31.908Z,27.20
2023-01-12T02:13:42.629Z,24.90
2023-01-12T02:16:43.671Z,25.30
2023-01-12T02:20:46.685Z,25.00
2023-01-12T02:23:44.495Z,26.60
2023-01-12T02:27:08.433Z,25.90
2023-01-12T02:30:32.600Z,20.30
2023-01-12T02:33:45.773Z,26.70
2023-01-12T02:36:45.007Z,26.30
2023-01-12T02:39:42.712Z,25.80
2023-01-12T02:42:41.288Z,27.40
2023-01-12T02:45:42.889Z,30.10
2023-01-12T02:48:30.391Z,29.40
2023-01-12T02:51:14.953Z,25.90
2023-01-12T02:53:52.822Z,25.00
2023-01-12T02:56:45.158Z,29.60
2023-01-12T02:59:37.014Z,26.90
2023-01-12T03:02:32.415Z,29.10
2023-01-12T03:05:20.507Z,23.50
2023-01-12T03:08:14.044Z,23.90
2023-01-12T03:11:13.915Z,20.60
2023-01-12T03:14:10.724Z,24.80
2023-01-12T03:17:11.440Z,28.20
2023-01-12T03:20:07.513Z,26.60
2023-01-12T03:23:04.082Z,27.70
2023-01-12T03:25:57.249Z,23.30
2023-01-12T03:28:53.669Z,26.20
2023-01-12T03:31:43.987Z,26.60
2023-01-12T03:34:37.768Z,22.80
2023-01-12T03:37:44.180Z,23.70
2023-01-12T03:40:39.413Z,23.50
2023-01-12T03:43:26.878Z,21.60
2023-01-12T03:46:20.955Z,22.10
2023-01-12T03:49:17.587Z,22.60
2023-01-12T03:52:10.439Z,20.30
2023-01-12T03:55:07.714Z,19.60
2023-01-12T03:57:59.854Z,20.10
2023-01-12T04:00:49.384Z,21.20
2023-01-12T04:03:42.758Z,24.70
2023-01-12T04:06:35.265Z,21.20
2023-01-12T04:09:25.456Z,20.40
2023-01-12T04:12:14.470Z,21.20
2023-01-12T04:15:13.919Z,21.00
2023-01-12T04:18:06.783Z,17.20
2023-01-12T04:20:58.245Z,19.90
2023-01-12T04:23:47.939Z,21.60
2023-01-12T04:26:41.132Z,21.20
2023-01-12T04:29:30.718Z,20.90
2023-01-12T04:32:23.430Z,18.50
2023-01-12T04:35:13.797Z,19.70
2023-01-12T04:38:10.365Z,17.10
2023-01-12T04:40:40.893Z,21.20
2023-01-12T04:43:29.931Z,16.60
2023-01-12T04:47:57.988Z,22.30
2023-01-12T04:50:18.267Z,17.70
2023-01-12T04:53:14.243Z,19.00
2023-01-12T04:56:15.555Z,20.50
2023-01-12T04:59:07.748Z,20.40
2023-01-12T05:01:47.801Z,22.10
2023-01-12T05:04:51.548Z,22.70
2023-01-12T05:07:57.976Z,20.10
2023-01-12T05:10:51.254Z,19.90
2023-01-12T05:13:43.373Z,21.40
2023-01-12T05:16:59.805Z,20.50
2023-01-12T05:20:15.366Z,20.90
2023-01-12T05:23:14.868Z,19.80
2023-01-12T05:26:15.360Z,22.50
2023-01-12T05:29:15.484Z,18.40
2023-01-12T05:31:59.907Z,17.50
2023-01-12T05:34:51.372Z,21.30
2023-01-12T05:37:44.166Z,21.10
2023-01-12T05:40:33.429Z,20.10
2023-01-12T05:43:41.960Z,23.20
2023-01-12T05:46:46.469Z,20.90
2023-01-12T05:49:44.671Z,20.40
2023-01-12T05:52:34.802Z,22.00
2023-01-12T05:55:27.607Z,19.70
2023-01-12T05:58:17.071Z,23.40
2023-01-12T06:01:14.276Z,20.30
2023-01-12T06:04:15.784Z,17.70
2023-01-12T06:07:15.619Z,18.70
2023-01-12T06:10:19.723Z,21.10
2023-01-12T06:13:47.699Z,21.50
2023-01-12T06:19:44.141Z,22.90
2023-01-12T06:22:38.537Z,21.40
2023-01-12T06:25:22.646Z,25.10
2023-01-12T06:28:13.388Z,21.00
2023-01-12T06:31:05.709Z,29.20
2023-01-12T06:34:08.236Z,21.80
2023-01-12T06:36:50.305Z,22.80
2023-01-12T06:39:45.147Z,23.80
2023-01-12T06:42:41.554Z,30.70
2023-01-12T06:45:35.533Z,27.80
2023-01-12T06:48:25.722Z,23.10
2023-01-12T06:51:16.353Z,32.60
2023-01-12T06:54:06.824Z,34.50
2023-01-12T06:56:59.399Z,25.30
2023-01-12T06:59:49.125Z,24.30
2023-01-12T07:02:38.919Z,20.70
2023-01-12T07:05:31.178Z,25.70
2023-01-12T07:08:15.258Z,26.30
2023-01-12T07:11:07.529Z,28.00
2023-01-12T07:14:03.093Z,26.70
2023-01-12T07:16:53.712Z,24.90
2023-01-12T07:19:43.313Z,27.00
2023-01-12T07:22:35.635Z,25.90
2023-01-12T07:25:25.397Z,26.40
2023-01-12T07:28:18.217Z,26.70
2023-01-12T07:31:09.212Z,28.20
2023-01-12T07:34:07.708Z,21.00
2023-01-12T07:36:59.102Z,29.50
2023-01-12T07:39:49.170Z,25.70
2023-01-12T07:42:38.819Z,18.30
2023-01-12T07:45:31.349Z,26.50
2023-01-12T07:48:22.056Z,25.80
2023-01-12T07:51:13.058Z,22.40
2023-01-12T07:54:02.952Z,22.10
2023-01-12T07:56:52.817Z,25.70
2023-01-12T07:59:42.657Z,20.40
2023-01-12T08:02:36.211Z,22.70
2023-01-12T08:05:26.378Z,21.00
2023-01-12T08:08:19.492Z,23.10
2023-01-12T08:11:12.240Z,22.60
2023-01-12T08:14:05.268Z,21.50
2023-01-12T08:16:56.962Z,21.60
2023-01-12T08:19:51.260Z,21.60
2023-01-12T08:22:46.347Z,24.30
2023-01-12T08:25:44.011Z,22.90
2023-01-12T08:28:42.954Z,24.00
2023-01-12T08:31:47.030Z,20.90
2023-01-12T08:34:39.713Z,22.10
2023-01-12T08:37:32.469Z,19.10
2023-01-12T08:40:22.204Z,21.60
2023-01-12T08:43:12.457Z,22.60
2023-01-12T08:46:08.945Z,23.40
2023-01-12T08:48:49.052Z,20.70
2023-01-12T08:51:41.648Z,24.60
2023-01-12T08:54:31.626Z,22.80
2023-01-12T08:57:36.697Z,23.40
2023-01-12T09:00:26.699Z,21.30
2023-01-12T09:03:16.846Z,19.40
2023-01-12T09:06:16.662Z,18.80
2023-01-12T09:09:09.846Z,20.50
2023-01-12T09:12:01.554Z,19.40
2023-01-12T09:14:53.280Z,21.50
2023-01-12T09:17:47.399Z,23.90
2023-01-12T09:20:41.132Z,24.10
2023-01-12T09:23:30.725Z,20.10
2023-01-12T09:26:23.866Z,21.40
2023-01-12T09:29:17.300Z,22.00
2023-01-12T09:32:20.505Z,20.90
2023-01-12T09:35:14.783Z,17.90
2023-01-12T09:38:06.128Z,21.10
2023-01-12T09:41:17.813Z,20.20
2023-01-12T09:44:36.448Z,17.70
2023-01-12T09:47:56.939Z,18.00
2023-01-12T09:53:46.750Z,17.90
2023-01-12T09:56:51.240Z,14.20
2023-01-12T09:59:58.408Z,17.10
2023-01-12T10:02:52.648Z,10.40
2023-01-12T10:06:06.619Z,16.10
2023-01-12T10:09:03.620Z,13.70
2023-01-12T10:12:27.291Z,13.10
2023-01-12T10:15:51.741Z,11.90
2023-01-12T10:18:48.216Z,11.70
2023-01-12T10:21:50.495Z,14.40
2023-01-12T10:24:43.370Z,10.70
2023-01-12T10:28:17.494Z,11.80
2023-01-12T10:31:17.413Z,12.20
2023-01-12T10:34:12.130Z,12.60
2023-01-12T10:37:10.352Z,10.90
2023-01-12T10:40:06.225Z,11.80
2023-01-12T10:43:21.632Z,10.50
2023-01-12T10:46:17.923Z,11.80
2023-01-12T10:49:20.592Z,10.10
2023-01-12T10:52:35.629Z,8.10
2023-01-12T10:55:29.911Z,10.50
2023-01-12T10:58:23.145Z,11.00
2023-01-12T11:01:15.374Z,10.30
2023-01-12T11:04:28.774Z,12.20
2023-01-12T11:07:22.369Z,12.70
2023-01-12T11:10:32.810Z,12.40
2023-01-12T11:13:43.151Z,13.50
2023-01-12T11:16:47.218Z,13.20
2023-01-12T11:19:45.742Z,11.20
2023-01-12T11:22:37.397Z,14.00
2023-01-12T11:25:30.773Z,14.60
2023-01-12T11:28:29.031Z,11.10
2023-01-12T11:31:27.136Z,9.90
2023-01-12T11:34:22.342Z,10.50
2023-01-12T11:37:16.453Z,10.10
2023-01-12T11:40:24.782Z,15.40
2023-01-12T11:43:47.492Z,14.30
2023-01-12T11:47:05.414Z,14.40
2023-01-12T11:50:06.341Z,14.50
2023-01-12T11:52:58.895Z,12.90
2023-01-12T11:56:03.891Z,14.60
2023-01-12T11:59:12.179Z,13.20
2023-01-12T12:02:19.643Z,15.20
2023-01-12T12:05:24.886Z,11.90
2023-01-12T12:08:27.772Z,11.80
2023-01-12T12:11:26.710Z,10.70
2023-01-12T12:14:28.484Z,10.50
2023-01-12T12:17:29.390Z,11.00
2023-01-12T12:20:30.622Z,8.60
2023-01-12T12:23:30.209Z,11.00
2023-01-12T12:26:28.568Z,9.30
2023-01-12T12:29:32.072Z,11.30
2023-01-12T12:32:35.736Z,9.20
2023-01-12T12:35:39.278Z,9.70
2023-01-12T12:38:44.199Z,10.00
2023-01-12T12:42:00.081Z,9.80
2023-01-12T12:45:24.254Z,11.50
2023-01-12T12:48:18.259Z,10.70
2023-01-12T12:51:11.437Z,11.30
2023-01-12T12:54:03.854Z,9.50
2023-01-12T12:57:00.159Z,8.40
2023-01-12T12:59:59.115Z,13.80
2023-01-12T13:03:11.402Z,11.50
2023-01-12T13:06:27.961Z,11.60
2023-01-12T13:09:38.799Z,11.80
2023-01-12T13:12:41.743Z,12.20
2023-01-12T13:16:23.889Z,9.50
2023-01-12T13:19:39.749Z,9.20
2023-01-12T13:22:44.452Z,11.30
2023-01-12T13:25:59.163Z,9.70
2023-01-12T13:28:49.226Z,11.00
2023-01-12T13:31:43.365Z,10.60
2023-01-12T13:34:45.687Z,12.80
2023-01-12T13:38:14.393Z,9.30
2023-01-12T13:41:51.484Z,15.50
2023-01-12T13:44:44.292Z,10.00
2023-01-12T13:47:37.841Z,10.90
2023-01-12T13:50:23.292Z,10.40
2023-01-12T13:53:19.107Z,8.90
2023-01-12T13:56:26.944Z,8.80
2023-01-12T13:59:19.038Z,9.00
2023-01-12T14:02:23.124Z,10.90
2023-01-12T14:05:52.167Z,9.90
2023-01-12T14:08:53.804Z,7.90
2023-01-12T14:13:18.651Z,9.60
2023-01-12T14:15:57.409Z,6.90
2023-01-12T14:18:58.740Z,8.20
2023-01-12T14:22:20.289Z,10.70
2023-01-12T14:25:18.195Z,11.20
2023-01-12T14:28:17.548Z,9.50
2023-01-12T14:31:24.529Z,11.90
2023-01-12T14:34:27.866Z,10.40
2023-01-12T14:37:29.775Z,6.20
2023-01-12T14:40:34.378Z,9.10
2023-01-12T14:43:45.476Z,6.60
2023-01-12T14:46:48.385Z,8.80
2023-01-12T14:49:39.427Z,8.60
2023-01-12T14:52:36.211Z,7.40
2023-01-12T14:55:41.481Z,8.90
2023-01-12T14:58:32.250Z,11.10
2023-01-12T15:02:23.263Z,11.60
2023-01-12T15:05:21.970Z,10.90
2023-01-12T15:08:26.621Z,10.90
2023-01-12T15:11:52.187Z,7.70
2023-01-12T15:14:51.461Z,10.40
2023-01-12T15:18:10.493Z,13.90
2023-01-12T15:21:25.205Z,8.30
2023-01-12T15:24:42.561Z,9.20
2023-01-12T15:27:46.911Z,15.20
2023-01-12T15:30:58.840Z,10.30
2023-01-12T15:33:50.127Z,10.30
2023-01-12T15:36:43.391Z,10.10
2023-01-12T15:39:38.090Z,14.00
2023-01-12T15:43:01.858Z,16.90
2023-01-12T15:45:57.662Z,17.70
2023-01-12T15:48:51.154Z,13.40
2023-01-12T15:51:33.557Z,23.20
2023-01-12T15:54:29.583Z,22.90
2023-01-12T15:57:20.011Z,15.50
2023-01-12T16:00:58.761Z,20.80
2023-01-12T16:04:24.905Z,19.90
2023-01-12T16:07:12.858Z,19.50
2023-01-12T16:10:08.645Z,22.70
2023-01-12T16:13:07.802Z,27.20
2023-01-12T16:16:06.523Z,20.70
2023-01-12T16:18:47.352Z,19.50
2023-01-12T16:21:41.501Z,18.90
2023-01-12T16:24:32.460Z,17.90
2023-01-12T16:27:30.658Z,21.10
2023-01-12T16:30:25.839Z,16.50
2023-01-12T16:33:22.786Z,17.60
2023-01-12T16:36:16.624Z,20.90
2023-01-12T16:39:16.993Z,21.10
2023-01-12T16:42:15.277Z,19.80
2023-01-12T16:45:28.908Z,17.20
2023-01-12T16:48:26.820Z,20.60
2023-01-12T16:51:18.099Z,20.60
2023-01-12T16:54:08.811Z,20.60
2023-01-12T16:57:01.618Z,24.10
2023-01-12T16:59:52.510Z,27.80
2023-01-12T17:02:50.165Z,23.60
2023-01-12T17:05:43.968Z,19.50
2023-01-12T17:08:46.116Z,29.90
2023-01-12T17:11:40.884Z,22.90
2023-01-12T17:14:39.412Z,24.30
2023-01-12T17:17:52.652Z,27.10
2023-01-12T17:21:07.793Z,25.10
2023-01-12T17:24:06.171Z,24.90
2023-01-12T17:26:59.078Z,25.40
2023-01-12T17:29:53.285Z,24.70
2023-01-12T17:32:43.549Z,21.60
2023-01-12T17:35:39.401Z,27.90
2023-01-12T17:38:30.868Z,25.00
2023-01-12T17:41:41.642Z,24.90
2023-01-12T17:44:34.418Z,29.70
2023-01-12T17:47:45.650Z,28.40
2023-01-12T17:50:29.436Z,24.40
2023-01-12T17:53:20.935Z,21.50
2023-01-12T17:56:13.566Z,28.00
2023-01-12T17:59:08.243Z,26.90
2023-01-12T18:02:20.572Z,27.60
2023-01-12T18:05:16.015Z,24.70
2023-01-12T18:08:08.934Z,20.90
2023-01-12T18:11:04.968Z,28.10
2023-01-12T18:14:45.940Z,24.20
2023-01-12T18:18:04.461Z,26.00
2023-01-12T18:20:27.580Z,25.60
2023-01-12T18:23:21.941Z,18.50
2023-01-12T18:26:13.119Z,21.70
2023-01-12T18:29:06.320Z,18.90
2023-01-12T18:31:57.258Z,23.90
2023-01-12T18:34:48.927Z,19.30
2023-01-12T18:37:39.261Z,19.40
2023-01-12T18:40:32.724Z,24.40
2023-01-12T18:43:23.426Z,20.90
2023-01-12T18:46:17.950Z,20.50
2023-01-12T18:49:25.800Z,20.00
2023-01-12T18:52:36.231Z,21.70
2023-01-12T18:55:21.665Z,18.60
2023-01-12T18:58:11.421Z,17.30
2023-01-12T19:01:05.887Z,18.10
2023-01-12T19:03:58.215Z,20.80
2023-01-12T19:06:44.401Z,22.20
2023-01-12T19:09:38.571Z,21.80
2023-01-12T19:12:32.408Z,22.10
2023-01-12T19:15:40.536Z,17.10
2023-01-12T19:18:35.260Z,16.00
2023-01-12T19:21:49.752Z,16.60
2023-01-12T19:25:21.861Z,17.90
2023-01-12T19:28:35.715Z,22.10
2023-01-12T19:31:50.593Z,24.20
2023-01-12T19:34:48.375Z,16.10
2023-01-12T19:37:42.459Z,28.40
2023-01-12T19:40:44.745Z,19.10
2023-01-12T19:43:36.966Z,19.00
2023-01-12T19:46:42.833Z,13.70
2023-01-12T19:49:27.246Z,16.80
2023-01-12T19:52:24.055Z,17.00
2023-01-12T19:55:14.941Z,16.40
2023-01-12T19:58:10.883Z,14.70
2023-01-12T20:01:01.196Z,21.50
2023-01-12T20:03:53.193Z,18.50
2023-01-12T20:07:12.340Z,17.80
2023-01-12T20:10:05.892Z,22.70
2023-01-12T20:12:57.156Z,18.60
2023-01-12T20:15:49.991Z,20.90
2023-01-12T20:18:46.764Z,17.90
2023-01-12T20:21:38.939Z,15.10
2023-01-12T20:24:32.514Z,16.10
2023-01-12T20:27:23.239Z,15.10
2023-01-12T20:30:25.221Z,17.70
2023-01-12T20:33:32.581Z,18.20
2023-01-12T20:37:10.961Z,17.30
2023-01-12T20:39:47.130Z,15.10
2023-01-12T20:42:42.397Z,16.90
2023-01-12T20:45:33.762Z,15.30
2023-01-12T20:48:27.211Z,12.50
2023-01-12T20:51:20.228Z,17.20
2023-01-12T20:54:16.459Z,18.80
2023-01-12T20:57:14.972Z,14.70
2023-01-12T21:00:28.555Z,17.20
2023-01-12T21:03:23.420Z,15.40
2023-01-12T21:06:17.357Z,15.50
2023-01-12T21:09:15.715Z,16.30
2023-01-12T21:12:16.572Z,15.30
2023-01-12T21:15:17.834Z,14.10
2023-01-12T21:18:19.535Z,15.90
2023-01-12T21:21:18.704Z,23.60
2023-01-12T21:24:33.466Z,14.10
2023-01-12T21:27:29.694Z,13.50
2023-01-12T21:30:21.916Z,18.00
2023-01-12T21:33:21.590Z,13.30
2023-01-12T21:36:02.228Z,13.00
2023-01-12T21:38:53.947Z,17.40
2023-01-12T21:42:13.283Z,13.70
2023-01-12T21:45:23.491Z,11.60
2023-01-12T21:48:28.057Z,16.60
2023-01-12T21:51:20.839Z,14.70
2023-01-12T21:54:21.788Z,15.70
2023-01-12T21:57:19.535Z,13.00
2023-01-12T22:00:23.978Z,12.60
2023-01-12T22:08:00.512Z,14.70
2023-01-12T22:09:34.336Z,11.70
2023-01-12T22:12:29.177Z,17.70
2023-01-12T22:15:21.239Z,13.20
2023-01-12T22:18:04.377Z,10.80
2023-01-12T22:21:00.685Z,16.40
2023-01-12T22:23:54.812Z,16.50
2023-01-12T22:26:55.206Z,14.10
2023-01-12T22:29:57.303Z,16.10
2023-01-12T22:33:19.782Z,13.50
2023-01-12T22:36:10.723Z,16.80
2023-01-12T22:39:01.884Z,12.70
2023-01-12T22:41:54.296Z,12.50
2023-01-12T22:44:44.604Z,15.20
2023-01-12T22:47:47.462Z,16.30
2023-01-12T22:50:41.341Z,15.00
2023-01-12T22:53:32.893Z,14.80
2023-01-12T22:56:26.157Z,13.90
2023-01-12T22:59:26.087Z,13.10
2023-01-12T23:02:43.098Z,12.90
2023-01-12T23:05:48.249Z,10.10
2023-01-12T23:08:39.286Z,15.10
2023-01-12T23:11:30.766Z,9.20
2023-01-12T23:14:23.795Z,12.00
2023-01-12T23:17:14.058Z,14.40
2023-01-12T23:20:04.902Z,14.60
2023-01-12T23:23:00.406Z,16.00
2023-01-12T23:25:44.140Z,14.30
2023-01-12T23:28:36.501Z,13.30
2023-01-12T23:31:32.963Z,11.90
2023-01-12T23:34:24.959Z,13.20
2023-01-12T23:37:15.549Z,14.70
2023-01-12T23:40:08.409Z,14.50
2023-01-12T23:43:03.926Z,18.00
2023-01-12T23:46:01.174Z,14.20
2023-01-12T23:49:04.290Z,10.30
2023-01-12T23:52:07.563Z,12.60
2023-01-12T23:55:00.131Z,15.70
2023-01-12T23:57:50.794Z,12.20
